sensor_id;sensor_type;location;lat;lon;timestamp;temperature;humidity
52643;DHT22;38531;53.296;6.614;2022-09-13T00:01:37;17.50;99.90
52643;DHT22;38531;53.296;6.614;2022-09-13T00:04:02;17.50;99.90
52643;DHT22;38531;53.296;6.614;2022-09-13T00:06:29;17.50;99.90
52643;DHT22;38531;53.296;6.614;2022-09-13T00:08:55;17.50;99.90
52643;DHT22;38531;53.296;6.614;2022-09-13T00:11:23;17.50;99.90
52643;DHT22;38531;53.296;6.614;2022-09-13T00:13:50;17.50;99.90
52643;DHT22;38531;53.296;6.614;2022-09-13T00:16:17;17.50;99.90
52643;DHT22;38531;53.296;6.614;2022-09-13T00:18:43;17.50;99.90
52643;DHT22;38531;53.296;6.614;2022-09-13T00:21:12;17.40;99.90
52643;DHT22;38531;53.296;6.614;2022-09-13T00:23:39;17.50;99.90
52643;DHT22;38531;53.296;6.614;2022-09-13T00:26:14;17.50;99.90
52643;DHT22;38531;53.296;6.614;2022-09-13T00:28:40;17.50;99.90
52643;DHT22;38531;53.296;6.614;2022-09-13T00:31:08;17.50;99.90
52643;DHT22;38531;53.296;6.614;2022-09-13T00:33:34;17.50;99.90
52643;DHT22;38531;53.296;6.614;2022-09-13T00:36:05;17.50;99.90
52643;DHT22;38531;53.296;6.614;2022-09-13T00:38:31;17.40;99.90
52643;DHT22;38531;53.296;6.614;2022-09-13T00:40:58;17.50;99.90
52643;DHT22;38531;53.296;6.614;2022-09-13T00:43:45;17.40;99.90
52643;DHT22;38531;53.296;6.614;2022-09-13T00:46:33;17.40;99.90
52643;DHT22;38531;53.296;6.614;2022-09-13T00:49:25;17.40;99.90
52643;DHT22;38531;53.296;6.614;2022-09-13T00:51:57;17.40;99.90
52643;DHT22;38531;53.296;6.614;2022-09-13T00:54:28;17.40;99.90
52643;DHT22;38531;53.296;6.614;2022-09-13T00:56:57;17.40;99.90
52643;DHT22;38531;53.296;6.614;2022-09-13T00:59:32;17.40;99.90
52643;DHT22;38531;53.296;6.614;2022-09-13T01:02:00;17.40;99.90
52643;DHT22;38531;53.296;6.614;2022-09-13T01:04:30;17.40;99.90
52643;DHT22;38531;53.296;6.614;2022-09-13T01:07:01;17.30;99.90
52643;DHT22;38531;53.296;6.614;2022-09-13T01:09:30;17.30;99.90
52643;DHT22;38531;53.296;6.614;2022-09-13T01:12:02;17.30;99.90
52643;DHT22;38531;53.296;6.614;2022-09-13T01:14:30;17.30;99.90
52643;DHT22;38531;53.296;6.614;2022-09-13T01:16:56;17.30;99.90
52643;DHT22;38531;53.296;6.614;2022-09-13T01:19:22;17.40;99.90
52643;DHT22;38531;53.296;6.614;2022-09-13T01:30:17;17.30;99.90
52643;DHT22;38531;53.296;6.614;2022-09-13T01:32:59;17.30;99.90
52643;DHT22;38531;53.296;6.614;2022-09-13T01:43:55;17.30;99.90
52643;DHT22;38531;53.296;6.614;2022-09-13T01:49:11;17.30;99.90
52643;DHT22;38531;53.296;6.614;2022-09-13T01:51:54;17.30;99.90
52643;DHT22;38531;53.296;6.614;2022-09-13T01:54:48;17.30;99.90
52643;DHT22;38531;53.296;6.614;2022-09-13T01:57:37;17.30;99.90
52643;DHT22;38531;53.296;6.614;2022-09-13T02:00:07;17.30;99.90
52643;DHT22;38531;53.296;6.614;2022-09-13T02:05:32;17.30;99.90
52643;DHT22;38531;53.296;6.614;2022-09-13T02:08:07;17.30;99.90
52643;DHT22;38531;53.296;6.614;2022-09-13T02:11:03;17.30;99.90
52643;DHT22;38531;53.296;6.614;2022-09-13T02:13:34;17.30;99.90
52643;DHT22;38531;53.296;6.614;2022-09-13T02:16:07;17.30;99.90
52643;DHT22;38531;53.296;6.614;2022-09-13T02:18:41;17.30;99.90
52643;DHT22;38531;53.296;6.614;2022-09-13T02:21:19;17.30;99.90
52643;DHT22;38531;53.296;6.614;2022-09-13T02:24:47;17.30;99.90
52643;DHT22;38531;53.296;6.614;2022-09-13T02:26:54;17.30;99.90
52643;DHT22;38531;53.296;6.614;2022-09-13T02:29:23;17.30;99.90
52643;DHT22;38531;53.296;6.614;2022-09-13T02:34:39;17.30;99.90
52643;DHT22;38531;53.296;6.614;2022-09-13T02:37:08;17.40;99.90
52643;DHT22;38531;53.296;6.614;2022-09-13T02:39:38;17.30;99.90
52643;DHT22;38531;53.296;6.614;2022-09-13T02:42:16;17.40;99.90
52643;DHT22;38531;53.296;6.614;2022-09-13T02:44:55;17.40;99.90
52643;DHT22;38531;53.296;6.614;2022-09-13T02:47:53;17.50;99.90
52643;DHT22;38531;53.296;6.614;2022-09-13T02:58:53;17.60;99.90
52643;DHT22;38531;53.296;6.614;2022-09-13T03:01:21;17.50;99.90
52643;DHT22;38531;53.296;6.614;2022-09-13T03:03:47;17.50;99.90
52643;DHT22;38531;53.296;6.614;2022-09-13T03:06:24;17.50;99.90
52643;DHT22;38531;53.296;6.614;2022-09-13T03:08:50;17.50;99.90
52643;DHT22;38531;53.296;6.614;2022-09-13T03:14:54;17.40;99.90
52643;DHT22;38531;53.296;6.614;2022-09-13T03:20:37;17.40;99.90
52643;DHT22;38531;53.296;6.614;2022-09-13T03:23:24;17.40;99.90
52643;DHT22;38531;53.296;6.614;2022-09-13T03:26:21;17.40;99.90
52643;DHT22;38531;53.296;6.614;2022-09-13T03:36:57;17.30;99.90
52643;DHT22;38531;53.296;6.614;2022-09-13T03:39:47;17.30;99.90
52643;DHT22;38531;53.296;6.614;2022-09-13T03:42:37;17.30;99.90
52643;DHT22;38531;53.296;6.614;2022-09-13T03:45:08;17.30;99.90
52643;DHT22;38531;53.296;6.614;2022-09-13T03:47:35;17.30;99.90
52643;DHT22;38531;53.296;6.614;2022-09-13T03:50:06;17.30;99.90
52643;DHT22;38531;53.296;6.614;2022-09-13T03:52:33;17.30;99.90
52643;DHT22;38531;53.296;6.614;2022-09-13T03:55:00;17.30;99.90
52643;DHT22;38531;53.296;6.614;2022-09-13T03:57:25;17.30;99.90
52643;DHT22;38531;53.296;6.614;2022-09-13T03:59:53;17.30;99.90
52643;DHT22;38531;53.296;6.614;2022-09-13T04:02:21;17.30;99.90
52643;DHT22;38531;53.296;6.614;2022-09-13T04:04:47;17.30;99.90
52643;DHT22;38531;53.296;6.614;2022-09-13T04:07:18;17.30;99.90
52643;DHT22;38531;53.296;6.614;2022-09-13T04:09:44;17.30;99.90
52643;DHT22;38531;53.296;6.614;2022-09-13T04:12:11;17.20;99.90
52643;DHT22;38531;53.296;6.614;2022-09-13T04:14:38;17.30;99.90
52643;DHT22;38531;53.296;6.614;2022-09-13T04:17:04;17.20;99.90
52643;DHT22;38531;53.296;6.614;2022-09-13T04:19:31;17.20;99.90
52643;DHT22;38531;53.296;6.614;2022-09-13T04:21:56;17.20;99.90
52643;DHT22;38531;53.296;6.614;2022-09-13T04:24:27;17.20;99.90
52643;DHT22;38531;53.296;6.614;2022-09-13T04:26:54;17.20;99.90
52643;DHT22;38531;53.296;6.614;2022-09-13T04:29:21;17.20;99.90
52643;DHT22;38531;53.296;6.614;2022-09-13T04:31:48;17.20;99.90
52643;DHT22;38531;53.296;6.614;2022-09-13T04:34:14;17.20;99.90
52643;DHT22;38531;53.296;6.614;2022-09-13T04:36:41;17.20;99.90
52643;DHT22;38531;53.296;6.614;2022-09-13T04:39:07;17.20;99.90
52643;DHT22;38531;53.296;6.614;2022-09-13T04:41:33;17.10;99.90
52643;DHT22;38531;53.296;6.614;2022-09-13T04:44:01;17.30;99.90
52643;DHT22;38531;53.296;6.614;2022-09-13T04:46:28;17.10;99.90
52643;DHT22;38531;53.296;6.614;2022-09-13T04:48:54;17.10;99.90
52643;DHT22;38531;53.296;6.614;2022-09-13T04:51:20;17.10;99.90
52643;DHT22;38531;53.296;6.614;2022-09-13T04:53:51;17.40;99.90
52643;DHT22;38531;53.296;6.614;2022-09-13T04:56:20;17.10;99.90
52643;DHT22;38531;53.296;6.614;2022-09-13T04:58:51;17.30;99.90
52643;DHT22;38531;53.296;6.614;2022-09-13T05:01:17;17.10;99.90
52643;DHT22;38531;53.296;6.614;2022-09-13T05:03:43;17.10;99.90
52643;DHT22;38531;53.296;6.614;2022-09-13T05:06:10;17.10;99.90
52643;DHT22;38531;53.296;6.614;2022-09-13T05:08:37;17.10;99.90
52643;DHT22;38531;53.296;6.614;2022-09-13T05:11:03;17.10;99.90
52643;DHT22;38531;53.296;6.614;2022-09-13T05:13:29;17.10;99.90
52643;DHT22;38531;53.296;6.614;2022-09-13T05:16:00;17.20;99.90
52643;DHT22;38531;53.296;6.614;2022-09-13T05:18:27;17.20;99.90
52643;DHT22;38531;53.296;6.614;2022-09-13T05:20:54;17.30;99.90
52643;DHT22;38531;53.296;6.614;2022-09-13T05:23:21;17.20;99.90
52643;DHT22;38531;53.296;6.614;2022-09-13T05:25:57;17.10;99.90
52643;DHT22;38531;53.296;6.614;2022-09-13T05:28:25;17.10;99.90
52643;DHT22;38531;53.296;6.614;2022-09-13T05:31:05;17.10;99.90
52643;DHT22;38531;53.296;6.614;2022-09-13T05:33:38;17.10;99.90
52643;DHT22;38531;53.296;6.614;2022-09-13T05:36:07;17.10;99.90
52643;DHT22;38531;53.296;6.614;2022-09-13T05:38:36;17.10;99.90
52643;DHT22;38531;53.296;6.614;2022-09-13T05:41:03;17.00;99.90
52643;DHT22;38531;53.296;6.614;2022-09-13T05:43:31;17.10;99.90
52643;DHT22;38531;53.296;6.614;2022-09-13T05:46:12;17.10;99.90
52643;DHT22;38531;53.296;6.614;2022-09-13T05:48:39;17.10;99.90
52643;DHT22;38531;53.296;6.614;2022-09-13T05:51:10;17.10;99.90
52643;DHT22;38531;53.296;6.614;2022-09-13T05:53:37;17.10;99.90
52643;DHT22;38531;53.296;6.614;2022-09-13T05:56:07;17.10;99.90
52643;DHT22;38531;53.296;6.614;2022-09-13T05:58:37;17.10;99.90
52643;DHT22;38531;53.296;6.614;2022-09-13T06:01:03;17.10;99.90
52643;DHT22;38531;53.296;6.614;2022-09-13T06:03:29;17.20;99.90
52643;DHT22;38531;53.296;6.614;2022-09-13T06:05:56;17.20;99.90
52643;DHT22;38531;53.296;6.614;2022-09-13T06:08:23;17.20;99.90
52643;DHT22;38531;53.296;6.614;2022-09-13T06:10:56;17.20;99.90
52643;DHT22;38531;53.296;6.614;2022-09-13T06:13:23;17.30;99.90
52643;DHT22;38531;53.296;6.614;2022-09-13T06:15:49;17.20;99.90
52643;DHT22;38531;53.296;6.614;2022-09-13T06:18:15;17.30;99.90
52643;DHT22;38531;53.296;6.614;2022-09-13T06:20:42;17.30;99.90
52643;DHT22;38531;53.296;6.614;2022-09-13T06:23:08;17.30;99.90
52643;DHT22;38531;53.296;6.614;2022-09-13T06:25:33;17.40;99.90
52643;DHT22;38531;53.296;6.614;2022-09-13T06:27:59;17.40;99.90
52643;DHT22;38531;53.296;6.614;2022-09-13T06:30:25;17.40;99.90
52643;DHT22;38531;53.296;6.614;2022-09-13T06:32:51;17.40;99.90
52643;DHT22;38531;53.296;6.614;2022-09-13T06:35:16;17.40;99.90
52643;DHT22;38531;53.296;6.614;2022-09-13T06:37:42;17.50;99.90
52643;DHT22;38531;53.296;6.614;2022-09-13T06:40:08;17.30;99.90
52643;DHT22;38531;53.296;6.614;2022-09-13T06:42:35;17.50;99.90
52643;DHT22;38531;53.296;6.614;2022-09-13T06:45:02;17.60;99.90
52643;DHT22;38531;53.296;6.614;2022-09-13T06:47:48;17.60;99.90
52643;DHT22;38531;53.296;6.614;2022-09-13T06:50:16;17.50;99.90
52643;DHT22;38531;53.296;6.614;2022-09-13T06:52:53;17.70;99.90
52643;DHT22;38531;53.296;6.614;2022-09-13T06:55:25;17.70;99.90
52643;DHT22;38531;53.296;6.614;2022-09-13T06:57:55;17.60;99.90
52643;DHT22;38531;53.296;6.614;2022-09-13T07:04:25;17.60;99.90
52643;DHT22;38531;53.296;6.614;2022-09-13T07:06:57;17.60;99.90
52643;DHT22;38531;53.296;6.614;2022-09-13T07:09:26;17.60;99.90
52643;DHT22;38531;53.296;6.614;2022-09-13T07:17:38;17.60;99.90
52643;DHT22;38531;53.296;6.614;2022-09-13T07:20:04;17.70;99.90
52643;DHT22;38531;53.296;6.614;2022-09-13T07:22:31;17.70;99.90
52643;DHT22;38531;53.296;6.614;2022-09-13T07:24:57;17.90;99.90
52643;DHT22;38531;53.296;6.614;2022-09-13T07:27:23;18.00;99.90
52643;DHT22;38531;53.296;6.614;2022-09-13T07:29:51;18.00;99.90
52643;DHT22;38531;53.296;6.614;2022-09-13T07:32:16;18.20;99.90
52643;DHT22;38531;53.296;6.614;2022-09-13T07:34:42;18.30;99.90
52643;DHT22;38531;53.296;6.614;2022-09-13T07:37:08;18.40;99.90
52643;DHT22;38531;53.296;6.614;2022-09-13T07:39:33;18.40;99.90
52643;DHT22;38531;53.296;6.614;2022-09-13T07:41:59;18.60;99.90
52643;DHT22;38531;53.296;6.614;2022-09-13T07:44:25;18.70;99.90
52643;DHT22;38531;53.296;6.614;2022-09-13T07:46:51;18.80;99.90
52643;DHT22;38531;53.296;6.614;2022-09-13T07:49:17;18.80;99.90
52643;DHT22;38531;53.296;6.614;2022-09-13T07:51:49;18.80;99.90
52643;DHT22;38531;53.296;6.614;2022-09-13T07:54:18;18.80;99.90
52643;DHT22;38531;53.296;6.614;2022-09-13T07:56:50;18.90;99.90
52643;DHT22;38531;53.296;6.614;2022-09-13T07:59:21;18.90;99.90
52643;DHT22;38531;53.296;6.614;2022-09-13T08:04:44;18.90;99.90
52643;DHT22;38531;53.296;6.614;2022-09-13T08:07:33;19.00;99.90
52643;DHT22;38531;53.296;6.614;2022-09-13T08:10:08;19.20;99.90
52643;DHT22;38531;53.296;6.614;2022-09-13T08:16:03;19.30;99.90
52643;DHT22;38531;53.296;6.614;2022-09-13T08:19:04;19.40;99.90
52643;DHT22;38531;53.296;6.614;2022-09-13T08:21:44;19.50;99.90
52643;DHT22;38531;53.296;6.614;2022-09-13T08:35:00;20.10;99.90
52643;DHT22;38531;53.296;6.614;2022-09-13T08:37:30;19.90;99.90
52643;DHT22;38531;53.296;6.614;2022-09-13T08:39:58;20.00;99.90
52643;DHT22;38531;53.296;6.614;2022-09-13T08:45:10;20.30;99.90
52643;DHT22;38531;53.296;6.614;2022-09-13T08:47:40;20.50;99.90
52643;DHT22;38531;53.296;6.614;2022-09-13T08:50:24;20.70;99.90
52643;DHT22;38531;53.296;6.614;2022-09-13T08:55:46;20.70;99.90
52643;DHT22;38531;53.296;6.614;2022-09-13T09:03:57;20.70;99.90
52643;DHT22;38531;53.296;6.614;2022-09-13T09:06:27;20.70;99.90
52643;DHT22;38531;53.296;6.614;2022-09-13T09:09:06;20.80;99.90
52643;DHT22;38531;53.296;6.614;2022-09-13T09:11:49;20.90;99.90
52643;DHT22;38531;53.296;6.614;2022-09-13T09:22:03;21.40;99.90
52643;DHT22;38531;53.296;6.614;2022-09-13T09:24:36;21.40;99.90
52643;DHT22;38531;53.296;6.614;2022-09-13T09:27:18;21.40;99.90
52643;DHT22;38531;53.296;6.614;2022-09-13T09:29:49;21.60;99.90
52643;DHT22;38531;53.296;6.614;2022-09-13T09:38:43;22.00;99.90
52643;DHT22;38531;53.296;6.614;2022-09-13T09:41:28;22.10;99.90
52643;DHT22;38531;53.296;6.614;2022-09-13T09:47:11;22.30;99.90
52643;DHT22;38531;53.296;6.614;2022-09-13T09:49:42;22.10;99.90
52643;DHT22;38531;53.296;6.614;2022-09-13T10:00:22;22.10;99.90
52643;DHT22;38531;53.296;6.614;2022-09-13T10:03:36;21.70;99.90
52643;DHT22;38531;53.296;6.614;2022-09-13T10:09:19;21.40;99.90
52643;DHT22;38531;53.296;6.614;2022-09-13T10:12:49;21.70;99.90
52643;DHT22;38531;53.296;6.614;2022-09-13T10:18:51;21.60;99.90
52643;DHT22;38531;53.296;6.614;2022-09-13T10:22:36;21.70;99.90
52643;DHT22;38531;53.296;6.614;2022-09-13T10:27:58;21.90;99.90
52643;DHT22;38531;53.296;6.614;2022-09-13T10:30:54;22.10;99.90
52643;DHT22;38531;53.296;6.614;2022-09-13T10:37:34;22.00;97.80
52643;DHT22;38531;53.296;6.614;2022-09-13T10:40:27;21.90;99.80
52643;DHT22;38531;53.296;6.614;2022-09-13T10:43:03;22.00;97.20
52643;DHT22;38531;53.296;6.614;2022-09-13T10:46:05;22.10;97.00
52643;DHT22;38531;53.296;6.614;2022-09-13T10:51:57;22.20;97.30
52643;DHT22;38531;53.296;6.614;2022-09-13T10:54:47;22.30;96.70
52643;DHT22;38531;53.296;6.614;2022-09-13T11:11:33;22.60;97.10
52643;DHT22;38531;53.296;6.614;2022-09-13T11:14:20;22.30;97.10
52643;DHT22;38531;53.296;6.614;2022-09-13T11:19:51;22.30;97.00
52643;DHT22;38531;53.296;6.614;2022-09-13T11:30:16;22.60;97.10
52643;DHT22;38531;53.296;6.614;2022-09-13T11:33:05;22.70;98.20
52643;DHT22;38531;53.296;6.614;2022-09-13T11:35:53;22.90;96.40
52643;DHT22;38531;53.296;6.614;2022-09-13T11:38:34;22.90;96.10
52643;DHT22;38531;53.296;6.614;2022-09-13T11:51:50;23.50;95.30
52643;DHT22;38531;53.296;6.614;2022-09-13T11:54:45;23.40;95.80
52643;DHT22;38531;53.296;6.614;2022-09-13T11:57:18;23.30;96.70
52643;DHT22;38531;53.296;6.614;2022-09-13T11:59:51;23.40;95.60
52643;DHT22;38531;53.296;6.614;2022-09-13T12:02:42;23.30;95.30
52643;DHT22;38531;53.296;6.614;2022-09-13T12:05:19;23.00;96.10
52643;DHT22;38531;53.296;6.614;2022-09-13T12:10:29;23.10;96.20
52643;DHT22;38531;53.296;6.614;2022-09-13T12:12:58;23.30;95.40
52643;DHT22;38531;53.296;6.614;2022-09-13T12:18:13;23.00;95.60
52643;DHT22;38531;53.296;6.614;2022-09-13T12:20:49;23.10;96.50
52643;DHT22;38531;53.296;6.614;2022-09-13T12:23:30;23.20;96.10
52643;DHT22;38531;53.296;6.614;2022-09-13T12:26:14;23.00;96.50
52643;DHT22;38531;53.296;6.614;2022-09-13T12:31:46;23.30;95.40
52643;DHT22;38531;53.296;6.614;2022-09-13T12:37:35;23.30;95.70
52643;DHT22;38531;53.296;6.614;2022-09-13T13:07:15;22.90;94.30
52643;DHT22;38531;53.296;6.614;2022-09-13T13:13:38;22.80;94.90
52643;DHT22;38531;53.296;6.614;2022-09-13T14:55:24;22.00;93.40
52643;DHT22;38531;53.296;6.614;2022-09-13T14:58:14;22.00;93.70
52643;DHT22;38531;53.296;6.614;2022-09-13T15:01:13;21.80;94.20
52643;DHT22;38531;53.296;6.614;2022-09-13T15:03:46;21.80;94.10
52643;DHT22;38531;53.296;6.614;2022-09-13T15:06:39;21.80;94.20
52643;DHT22;38531;53.296;6.614;2022-09-13T15:23:23;21.40;93.60
52643;DHT22;38531;53.296;6.614;2022-09-13T15:36:05;20.90;95.20
52643;DHT22;38531;53.296;6.614;2022-09-13T15:43:03;21.00;95.00
52643;DHT22;38531;53.296;6.614;2022-09-13T15:49:20;20.90;94.80
52643;DHT22;38531;53.296;6.614;2022-09-13T15:52:04;20.80;95.40
52643;DHT22;38531;53.296;6.614;2022-09-13T15:54:37;20.80;94.70
52643;DHT22;38531;53.296;6.614;2022-09-13T16:00:13;20.60;95.10
52643;DHT22;38531;53.296;6.614;2022-09-13T16:03:23;20.70;95.30
52643;DHT22;38531;53.296;6.614;2022-09-13T16:06:23;20.70;95.60
52643;DHT22;38531;53.296;6.614;2022-09-13T16:09:04;20.80;95.90
52643;DHT22;38531;53.296;6.614;2022-09-13T16:21:23;20.30;97.50
52643;DHT22;38531;53.296;6.614;2022-09-13T16:23:54;20.00;97.80
52643;DHT22;38531;53.296;6.614;2022-09-13T16:26:27;19.90;98.90
52643;DHT22;38531;53.296;6.614;2022-09-13T16:31:49;19.70;98.10
52643;DHT22;38531;53.296;6.614;2022-09-13T16:34:26;19.80;98.20
52643;DHT22;38531;53.296;6.614;2022-09-13T16:37:25;19.60;98.10
52643;DHT22;38531;53.296;6.614;2022-09-13T16:40:17;19.70;97.30
52643;DHT22;38531;53.296;6.614;2022-09-13T16:42:44;19.80;97.30
52643;DHT22;38531;53.296;6.614;2022-09-13T16:45:10;19.70;97.60
52643;DHT22;38531;53.296;6.614;2022-09-13T16:47:39;19.70;97.30
52643;DHT22;38531;53.296;6.614;2022-09-13T16:50:07;19.60;97.70
52643;DHT22;38531;53.296;6.614;2022-09-13T16:52:36;19.50;97.40
52643;DHT22;38531;53.296;6.614;2022-09-13T16:55:05;19.50;97.20
52643;DHT22;38531;53.296;6.614;2022-09-13T16:57:31;19.40;97.40
52643;DHT22;38531;53.296;6.614;2022-09-13T17:00:00;19.30;97.40
52643;DHT22;38531;53.296;6.614;2022-09-13T17:02:55;19.30;97.80
52643;DHT22;38531;53.296;6.614;2022-09-13T17:05:24;19.10;98.20
52643;DHT22;38531;53.296;6.614;2022-09-13T17:10:33;19.00;98.50
52643;DHT22;38531;53.296;6.614;2022-09-13T17:14:02;18.90;98.90
52643;DHT22;38531;53.296;6.614;2022-09-13T17:16:54;18.90;98.80
52643;DHT22;38531;53.296;6.614;2022-09-13T17:19:32;18.80;99.40
52643;DHT22;38531;53.296;6.614;2022-09-13T17:22:13;18.80;99.80
52643;DHT22;38531;53.296;6.614;2022-09-13T17:24:57;18.70;99.00
52643;DHT22;38531;53.296;6.614;2022-09-13T17:27:25;18.80;99.10
52643;DHT22;38531;53.296;6.614;2022-09-13T17:29:51;18.70;99.90
52643;DHT22;38531;53.296;6.614;2022-09-13T17:32:27;18.70;99.00
52643;DHT22;38531;53.296;6.614;2022-09-13T17:34:52;18.50;99.00
52643;DHT22;38531;53.296;6.614;2022-09-13T17:37:18;18.60;99.60
52643;DHT22;38531;53.296;6.614;2022-09-13T17:39:45;18.50;99.90
52643;DHT22;38531;53.296;6.614;2022-09-13T17:42:16;18.50;99.50
52643;DHT22;38531;53.296;6.614;2022-09-13T17:44:42;18.40;99.90
52643;DHT22;38531;53.296;6.614;2022-09-13T17:47:34;18.40;99.70
52643;DHT22;38531;53.296;6.614;2022-09-13T17:50:00;18.40;99.80
52643;DHT22;38531;53.296;6.614;2022-09-13T17:55:22;18.30;99.90
52643;DHT22;38531;53.296;6.614;2022-09-13T17:57:48;18.30;99.90
52643;DHT22;38531;53.296;6.614;2022-09-13T18:00:14;18.20;99.90
52643;DHT22;38531;53.296;6.614;2022-09-13T18:02:43;18.30;99.90
52643;DHT22;38531;53.296;6.614;2022-09-13T18:05:09;18.20;99.90
52643;DHT22;38531;53.296;6.614;2022-09-13T18:07:34;18.20;99.90
52643;DHT22;38531;53.296;6.614;2022-09-13T18:10:00;18.20;99.90
52643;DHT22;38531;53.296;6.614;2022-09-13T18:12:26;18.20;99.90
52643;DHT22;38531;53.296;6.614;2022-09-13T18:14:51;18.20;99.90
52643;DHT22;38531;53.296;6.614;2022-09-13T18:17:17;18.10;99.90
52643;DHT22;38531;53.296;6.614;2022-09-13T18:19:43;18.00;99.90
52643;DHT22;38531;53.296;6.614;2022-09-13T18:22:08;18.00;99.90
52643;DHT22;38531;53.296;6.614;2022-09-13T18:24:34;18.00;99.90
52643;DHT22;38531;53.296;6.614;2022-09-13T18:27:00;17.90;99.90
52643;DHT22;38531;53.296;6.614;2022-09-13T18:29:27;17.90;99.90
52643;DHT22;38531;53.296;6.614;2022-09-13T18:31:54;17.80;99.90
52643;DHT22;38531;53.296;6.614;2022-09-13T18:34:20;17.80;99.90
52643;DHT22;38531;53.296;6.614;2022-09-13T18:36:46;17.80;99.90
52643;DHT22;38531;53.296;6.614;2022-09-13T18:39:19;17.80;99.90
52643;DHT22;38531;53.296;6.614;2022-09-13T18:41:45;17.80;99.90
52643;DHT22;38531;53.296;6.614;2022-09-13T18:44:14;17.70;99.90
52643;DHT22;38531;53.296;6.614;2022-09-13T18:46:41;17.70;99.90
52643;DHT22;38531;53.296;6.614;2022-09-13T18:49:08;17.70;99.90
52643;DHT22;38531;53.296;6.614;2022-09-13T18:51:39;17.70;99.90
52643;DHT22;38531;53.296;6.614;2022-09-13T18:54:09;17.60;99.90
52643;DHT22;38531;53.296;6.614;2022-09-13T18:56:35;17.60;99.90
52643;DHT22;38531;53.296;6.614;2022-09-13T18:59:04;17.60;99.90
52643;DHT22;38531;53.296;6.614;2022-09-13T19:01:38;17.60;99.90
52643;DHT22;38531;53.296;6.614;2022-09-13T19:04:11;17.60;99.90
52643;DHT22;38531;53.296;6.614;2022-09-13T19:06:40;17.50;99.90
52643;DHT22;38531;53.296;6.614;2022-09-13T19:09:07;17.50;99.90
52643;DHT22;38531;53.296;6.614;2022-09-13T19:11:41;17.50;99.90
52643;DHT22;38531;53.296;6.614;2022-09-13T19:14:08;17.50;99.90
52643;DHT22;38531;53.296;6.614;2022-09-13T19:16:35;17.50;99.90
52643;DHT22;38531;53.296;6.614;2022-09-13T19:19:01;17.40;99.90
52643;DHT22;38531;53.296;6.614;2022-09-13T19:21:29;17.40;99.90
52643;DHT22;38531;53.296;6.614;2022-09-13T19:23:56;17.50;99.90
52643;DHT22;38531;53.296;6.614;2022-09-13T19:26:24;17.40;99.90
52643;DHT22;38531;53.296;6.614;2022-09-13T19:28:54;17.50;99.90
52643;DHT22;38531;53.296;6.614;2022-09-13T19:31:25;17.30;99.90
52643;DHT22;38531;53.296;6.614;2022-09-13T19:33:52;17.40;99.90
52643;DHT22;38531;53.296;6.614;2022-09-13T19:36:21;17.30;99.90
52643;DHT22;38531;53.296;6.614;2022-09-13T19:38:48;17.30;99.90
52643;DHT22;38531;53.296;6.614;2022-09-13T19:41:16;17.30;99.90
52643;DHT22;38531;53.296;6.614;2022-09-13T19:43:45;17.20;99.90
52643;DHT22;38531;53.296;6.614;2022-09-13T19:46:22;17.30;99.90
52643;DHT22;38531;53.296;6.614;2022-09-13T19:48:53;17.30;99.90
52643;DHT22;38531;53.296;6.614;2022-09-13T19:51:27;17.20;99.90
52643;DHT22;38531;53.296;6.614;2022-09-13T19:53:54;17.20;99.90
52643;DHT22;38531;53.296;6.614;2022-09-13T19:56:23;17.20;99.90
52643;DHT22;38531;53.296;6.614;2022-09-13T19:58:50;17.10;99.90
52643;DHT22;38531;53.296;6.614;2022-09-13T20:01:18;17.10;99.90
52643;DHT22;38531;53.296;6.614;2022-09-13T20:03:53;17.00;99.90
52643;DHT22;38531;53.296;6.614;2022-09-13T20:06:20;17.00;99.90
52643;DHT22;38531;53.296;6.614;2022-09-13T20:08:49;16.90;99.90
52643;DHT22;38531;53.296;6.614;2022-09-13T20:11:16;16.80;99.90
52643;DHT22;38531;53.296;6.614;2022-09-13T20:13:42;16.30;99.90
52643;DHT22;38531;53.296;6.614;2022-09-13T20:16:17;16.70;99.90
52643;DHT22;38531;53.296;6.614;2022-09-13T20:18:43;16.60;99.90
52643;DHT22;38531;53.296;6.614;2022-09-13T20:21:10;16.60;99.90
52643;DHT22;38531;53.296;6.614;2022-09-13T20:23:37;16.60;99.90
52643;DHT22;38531;53.296;6.614;2022-09-13T20:26:11;16.20;99.90
52643;DHT22;38531;53.296;6.614;2022-09-13T20:28:37;16.40;99.90
52643;DHT22;38531;53.296;6.614;2022-09-13T20:31:02;16.50;99.90
52643;DHT22;38531;53.296;6.614;2022-09-13T20:33:29;16.50;99.90
52643;DHT22;38531;53.296;6.614;2022-09-13T20:35:55;16.50;99.90
52643;DHT22;38531;53.296;6.614;2022-09-13T20:38:21;16.50;99.90
52643;DHT22;38531;53.296;6.614;2022-09-13T20:40:47;16.50;99.90
52643;DHT22;38531;53.296;6.614;2022-09-13T20:43:14;16.50;99.90
52643;DHT22;38531;53.296;6.614;2022-09-13T20:45:40;16.50;99.90
52643;DHT22;38531;53.296;6.614;2022-09-13T20:48:06;16.50;99.90
52643;DHT22;38531;53.296;6.614;2022-09-13T20:50:32;16.40;99.90
52643;DHT22;38531;53.296;6.614;2022-09-13T20:52:57;16.40;99.90
52643;DHT22;38531;53.296;6.614;2022-09-13T20:55:24;16.40;99.90
52643;DHT22;38531;53.296;6.614;2022-09-13T20:57:50;16.40;99.90
52643;DHT22;38531;53.296;6.614;2022-09-13T21:00:16;16.40;99.90
52643;DHT22;38531;53.296;6.614;2022-09-13T21:02:42;16.40;99.90
52643;DHT22;38531;53.296;6.614;2022-09-13T21:05:08;16.30;99.90
52643;DHT22;38531;53.296;6.614;2022-09-13T21:07:34;16.30;99.90
52643;DHT22;38531;53.296;6.614;2022-09-13T21:10:18;16.20;99.90
52643;DHT22;38531;53.296;6.614;2022-09-13T21:12:49;16.20;99.90
52643;DHT22;38531;53.296;6.614;2022-09-13T21:15:15;16.20;99.90
52643;DHT22;38531;53.296;6.614;2022-09-13T21:17:41;16.10;99.90
52643;DHT22;38531;53.296;6.614;2022-09-13T21:20:08;16.10;99.90
52643;DHT22;38531;53.296;6.614;2022-09-13T21:22:34;16.00;99.90
52643;DHT22;38531;53.296;6.614;2022-09-13T21:25:00;16.00;99.90
52643;DHT22;38531;53.296;6.614;2022-09-13T21:27:25;16.00;99.90
52643;DHT22;38531;53.296;6.614;2022-09-13T21:29:52;15.90;99.90
52643;DHT22;38531;53.296;6.614;2022-09-13T21:32:17;15.90;99.90
52643;DHT22;38531;53.296;6.614;2022-09-13T21:34:43;15.90;99.90
52643;DHT22;38531;53.296;6.614;2022-09-13T21:37:09;15.80;99.90
52643;DHT22;38531;53.296;6.614;2022-09-13T21:39:35;15.80;99.90
52643;DHT22;38531;53.296;6.614;2022-09-13T21:42:01;15.80;99.90
52643;DHT22;38531;53.296;6.614;2022-09-13T21:44:26;15.70;99.90
52643;DHT22;38531;53.296;6.614;2022-09-13T21:46:52;15.70;99.90
52643;DHT22;38531;53.296;6.614;2022-09-13T21:49:18;15.70;99.90
52643;DHT22;38531;53.296;6.614;2022-09-13T21:51:46;16.10;99.90
52643;DHT22;38531;53.296;6.614;2022-09-13T21:54:16;15.60;99.90
52643;DHT22;38531;53.296;6.614;2022-09-13T21:56:43;15.60;99.90
52643;DHT22;38531;53.296;6.614;2022-09-13T21:59:14;15.60;99.90
52643;DHT22;38531;53.296;6.614;2022-09-13T22:01:42;15.60;99.90